sensor_id;sensor_type;location;lat;lon;timestamp;P1;durP1;ratioP1;P2;durP2;ratioP2
3647;SDS011;1840;48.892;15.312;2024-03-07T00:01:39;58.43;;;32.07;;
3647;SDS011;1840;48.892;15.312;2024-03-07T00:04:07;58.53;;;32.13;;
3647;SDS011;1840;48.892;15.312;2024-03-07T00:06:36;59.17;;;32.60;;
3647;SDS011;1840;48.892;15.312;2024-03-07T00:09:04;61.47;;;32.73;;
3647;SDS011;1840;48.892;15.312;2024-03-07T00:11:36;62.17;;;32.73;;
3647;SDS011;1840;48.892;15.312;2024-03-07T00:14:05;59.23;;;33.70;;
3647;SDS011;1840;48.892;15.312;2024-03-07T00:16:34;56.10;;;30.83;;
3647;SDS011;1840;48.892;15.312;2024-03-07T00:19:03;60.50;;;32.10;;
3647;SDS011;1840;48.892;15.312;2024-03-07T00:21:31;62.87;;;35.90;;
3647;SDS011;1840;48.892;15.312;2024-03-07T00:23:59;61.33;;;31.90;;
3647;SDS011;1840;48.892;15.312;2024-03-07T00:26:27;67.20;;;35.97;;
3647;SDS011;1840;48.892;15.312;2024-03-07T00:28:56;65.10;;;35.13;;
3647;SDS011;1840;48.892;15.312;2024-03-07T00:31:25;62.83;;;33.90;;
3647;SDS011;1840;48.892;15.312;2024-03-07T00:33:55;68.57;;;36.03;;
3647;SDS011;1840;48.892;15.312;2024-03-07T00:36:38;63.17;;;34.47;;
3647;SDS011;1840;48.892;15.312;2024-03-07T00:39:06;66.90;;;35.03;;
3647;SDS011;1840;48.892;15.312;2024-03-07T00:41:38;73.73;;;37.90;;
3647;SDS011;1840;48.892;15.312;2024-03-07T00:44:06;66.53;;;37.00;;
3647;SDS011;1840;48.892;15.312;2024-03-07T00:46:35;63.23;;;35.10;;
3647;SDS011;1840;48.892;15.312;2024-03-07T00:49:05;68.83;;;35.83;;
3647;SDS011;1840;48.892;15.312;2024-03-07T00:51:37;68.23;;;37.53;;
3647;SDS011;1840;48.892;15.312;2024-03-07T00:54:06;70.13;;;36.80;;
3647;SDS011;1840;48.892;15.312;2024-03-07T00:56:34;71.20;;;37.50;;
3647;SDS011;1840;48.892;15.312;2024-03-07T00:59:03;71.87;;;39.40;;
3647;SDS011;1840;48.892;15.312;2024-03-07T01:01:31;69.27;;;36.77;;
3647;SDS011;1840;48.892;15.312;2024-03-07T01:04:03;72.00;;;38.57;;
3647;SDS011;1840;48.892;15.312;2024-03-07T01:06:33;75.67;;;38.00;;
3647;SDS011;1840;48.892;15.312;2024-03-07T01:09:02;71.50;;;39.80;;
3647;SDS011;1840;48.892;15.312;2024-03-07T01:11:30;65.73;;;36.30;;
3647;SDS011;1840;48.892;15.312;2024-03-07T01:13:59;67.90;;;37.93;;
3647;SDS011;1840;48.892;15.312;2024-03-07T01:16:27;73.37;;;38.73;;
3647;SDS011;1840;48.892;15.312;2024-03-07T01:18:55;76.63;;;39.37;;
3647;SDS011;1840;48.892;15.312;2024-03-07T01:21:23;75.13;;;37.30;;
3647;SDS011;1840;48.892;15.312;2024-03-07T01:23:53;73.43;;;38.50;;
3647;SDS011;1840;48.892;15.312;2024-03-07T01:26:22;81.17;;;41.77;;
3647;SDS011;1840;48.892;15.312;2024-03-07T01:28:51;73.07;;;37.63;;
3647;SDS011;1840;48.892;15.312;2024-03-07T01:31:21;75.43;;;38.63;;
3647;SDS011;1840;48.892;15.312;2024-03-07T01:33:49;75.03;;;42.17;;
3647;SDS011;1840;48.892;15.312;2024-03-07T01:36:18;76.40;;;40.00;;
3647;SDS011;1840;48.892;15.312;2024-03-07T01:38:47;74.13;;;40.37;;
3647;SDS011;1840;48.892;15.312;2024-03-07T01:41:17;77.27;;;41.57;;
3647;SDS011;1840;48.892;15.312;2024-03-07T01:43:45;70.27;;;38.70;;
3647;SDS011;1840;48.892;15.312;2024-03-07T01:46:13;70.60;;;36.97;;
3647;SDS011;1840;48.892;15.312;2024-03-07T01:48:42;76.03;;;41.20;;
3647;SDS011;1840;48.892;15.312;2024-03-07T01:51:10;73.67;;;37.87;;
3647;SDS011;1840;48.892;15.312;2024-03-07T01:53:38;86.60;;;42.40;;
3647;SDS011;1840;48.892;15.312;2024-03-07T01:56:06;82.10;;;45.07;;
3647;SDS011;1840;48.892;15.312;2024-03-07T01:58:37;79.97;;;42.37;;
3647;SDS011;1840;48.892;15.312;2024-03-07T02:01:06;76.77;;;41.20;;
3647;SDS011;1840;48.892;15.312;2024-03-07T02:03:34;77.50;;;42.63;;
3647;SDS011;1840;48.892;15.312;2024-03-07T02:06:03;70.10;;;38.17;;
3647;SDS011;1840;48.892;15.312;2024-03-07T02:08:31;82.20;;;42.53;;
3647;SDS011;1840;48.892;15.312;2024-03-07T02:11:01;81.33;;;40.77;;
3647;SDS011;1840;48.892;15.312;2024-03-07T02:13:29;82.00;;;43.20;;
3647;SDS011;1840;48.892;15.312;2024-03-07T02:15:59;81.63;;;43.50;;
3647;SDS011;1840;48.892;15.312;2024-03-07T02:18:27;76.67;;;40.30;;
3647;SDS011;1840;48.892;15.312;2024-03-07T02:20:58;76.77;;;40.07;;
3647;SDS011;1840;48.892;15.312;2024-03-07T02:23:26;74.40;;;38.97;;
3647;SDS011;1840;48.892;15.312;2024-03-07T02:25:55;78.17;;;41.27;;
3647;SDS011;1840;48.892;15.312;2024-03-07T02:28:23;80.10;;;41.50;;
3647;SDS011;1840;48.892;15.312;2024-03-07T02:30:51;77.73;;;40.70;;
3647;SDS011;1840;48.892;15.312;2024-03-07T02:33:19;82.03;;;42.27;;
3647;SDS011;1840;48.892;15.312;2024-03-07T02:35:48;80.60;;;41.37;;
3647;SDS011;1840;48.892;15.312;2024-03-07T02:38:17;83.60;;;40.97;;
3647;SDS011;1840;48.892;15.312;2024-03-07T02:40:47;74.10;;;39.30;;
3647;SDS011;1840;48.892;15.312;2024-03-07T02:43:15;85.90;;;43.00;;
3647;SDS011;1840;48.892;15.312;2024-03-07T02:45:44;78.30;;;40.10;;
3647;SDS011;1840;48.892;15.312;2024-03-07T02:48:16;76.50;;;41.50;;
3647;SDS011;1840;48.892;15.312;2024-03-07T02:50:45;83.47;;;42.57;;
3647;SDS011;1840;48.892;15.312;2024-03-07T02:53:14;63.90;;;35.10;;
3647;SDS011;1840;48.892;15.312;2024-03-07T02:55:43;63.73;;;34.77;;
3647;SDS011;1840;48.892;15.312;2024-03-07T02:58:11;61.80;;;32.20;;
3647;SDS011;1840;48.892;15.312;2024-03-07T03:00:41;63.80;;;32.77;;
3647;SDS011;1840;48.892;15.312;2024-03-07T03:03:09;62.53;;;33.63;;
3647;SDS011;1840;48.892;15.312;2024-03-07T03:05:37;68.93;;;33.13;;
3647;SDS011;1840;48.892;15.312;2024-03-07T03:08:06;56.63;;;31.10;;
3647;SDS011;1840;48.892;15.312;2024-03-07T03:10:34;59.83;;;31.00;;
3647;SDS011;1840;48.892;15.312;2024-03-07T03:13:03;58.17;;;31.30;;
3647;SDS011;1840;48.892;15.312;2024-03-07T03:15:33;60.67;;;32.00;;
3647;SDS011;1840;48.892;15.312;2024-03-07T03:18:01;63.03;;;31.80;;
3647;SDS011;1840;48.892;15.312;2024-03-07T03:20:30;62.40;;;29.63;;
3647;SDS011;1840;48.892;15.312;2024-03-07T03:23:02;61.50;;;33.87;;
3647;SDS011;1840;48.892;15.312;2024-03-07T03:25:45;65.70;;;30.63;;
3647;SDS011;1840;48.892;15.312;2024-03-07T03:28:16;56.67;;;31.47;;
3647;SDS011;1840;48.892;15.312;2024-03-07T03:30:46;51.97;;;29.43;;
3647;SDS011;1840;48.892;15.312;2024-03-07T03:33:15;56.70;;;29.03;;
3647;SDS011;1840;48.892;15.312;2024-03-07T03:35:44;45.50;;;25.70;;
3647;SDS011;1840;48.892;15.312;2024-03-07T03:38:12;48.73;;;26.20;;
3647;SDS011;1840;48.892;15.312;2024-03-07T03:40:42;55.03;;;26.43;;
3647;SDS011;1840;48.892;15.312;2024-03-07T03:43:11;49.73;;;26.57;;
3647;SDS011;1840;48.892;15.312;2024-03-07T03:45:40;48.60;;;25.07;;
3647;SDS011;1840;48.892;15.312;2024-03-07T03:48:08;49.30;;;27.40;;
3647;SDS011;1840;48.892;15.312;2024-03-07T03:50:36;49.20;;;26.30;;
3647;SDS011;1840;48.892;15.312;2024-03-07T03:53:05;43.17;;;24.83;;
3647;SDS011;1840;48.892;15.312;2024-03-07T03:55:34;48.27;;;23.70;;
3647;SDS011;1840;48.892;15.312;2024-03-07T03:58:03;44.80;;;26.20;;
3647;SDS011;1840;48.892;15.312;2024-03-07T04:00:31;50.40;;;27.63;;
3647;SDS011;1840;48.892;15.312;2024-03-07T04:03:01;47.47;;;25.93;;
3647;SDS011;1840;48.892;15.312;2024-03-07T04:05:30;42.73;;;25.17;;
3647;SDS011;1840;48.892;15.312;2024-03-07T04:07:58;46.07;;;24.40;;
3647;SDS011;1840;48.892;15.312;2024-03-07T04:10:27;48.67;;;24.67;;
3647;SDS011;1840;48.892;15.312;2024-03-07T04:12:55;44.77;;;25.73;;
3647;SDS011;1840;48.892;15.312;2024-03-07T04:15:24;52.07;;;24.00;;
3647;SDS011;1840;48.892;15.312;2024-03-07T04:17:54;44.70;;;25.60;;
3647;SDS011;1840;48.892;15.312;2024-03-07T04:20:24;47.17;;;26.03;;
3647;SDS011;1840;48.892;15.312;2024-03-07T04:22:53;43.63;;;24.73;;
3647;SDS011;1840;48.892;15.312;2024-03-07T04:25:22;45.27;;;25.30;;
3647;SDS011;1840;48.892;15.312;2024-03-07T04:27:51;45.90;;;24.00;;
3647;SDS011;1840;48.892;15.312;2024-03-07T04:30:19;53.30;;;26.33;;
3647;SDS011;1840;48.892;15.312;2024-03-07T04:32:47;45.27;;;23.90;;
3647;SDS011;1840;48.892;15.312;2024-03-07T04:35:16;46.43;;;26.53;;
3647;SDS011;1840;48.892;15.312;2024-03-07T04:37:47;42.73;;;23.83;;
3647;SDS011;1840;48.892;15.312;2024-03-07T04:40:15;43.07;;;25.50;;
3647;SDS011;1840;48.892;15.312;2024-03-07T04:42:45;43.83;;;25.33;;
3647;SDS011;1840;48.892;15.312;2024-03-07T04:45:15;51.10;;;26.57;;
3647;SDS011;1840;48.892;15.312;2024-03-07T04:47:43;48.93;;;25.70;;
3647;SDS011;1840;48.892;15.312;2024-03-07T04:50:13;47.40;;;27.00;;
3647;SDS011;1840;48.892;15.312;2024-03-07T04:52:46;51.10;;;28.17;;
3647;SDS011;1840;48.892;15.312;2024-03-07T04:55:16;52.30;;;27.07;;
3647;SDS011;1840;48.892;15.312;2024-03-07T04:57:44;52.37;;;28.17;;
3647;SDS011;1840;48.892;15.312;2024-03-07T05:00:13;54.20;;;28.03;;
3647;SDS011;1840;48.892;15.312;2024-03-07T05:02:44;51.83;;;27.43;;
3647;SDS011;1840;48.892;15.312;2024-03-07T05:05:14;54.63;;;27.23;;
3647;SDS011;1840;48.892;15.312;2024-03-07T05:07:54;50.57;;;26.80;;
3647;SDS011;1840;48.892;15.312;2024-03-07T05:10:23;47.17;;;25.83;;
3647;SDS011;1840;48.892;15.312;2024-03-07T05:12:51;46.40;;;26.27;;
3647;SDS011;1840;48.892;15.312;2024-03-07T05:15:19;47.40;;;26.83;;
3647;SDS011;1840;48.892;15.312;2024-03-07T05:17:52;45.47;;;24.23;;
3647;SDS011;1840;48.892;15.312;2024-03-07T05:20:22;48.33;;;25.70;;
3647;SDS011;1840;48.892;15.312;2024-03-07T05:22:51;46.77;;;26.37;;
3647;SDS011;1840;48.892;15.312;2024-03-07T05:25:21;52.07;;;26.77;;
3647;SDS011;1840;48.892;15.312;2024-03-07T05:27:49;51.20;;;28.50;;
3647;SDS011;1840;48.892;15.312;2024-03-07T05:30:18;46.17;;;25.37;;
3647;SDS011;1840;48.892;15.312;2024-03-07T05:32:49;48.20;;;25.27;;
3647;SDS011;1840;48.892;15.312;2024-03-07T05:35:17;49.57;;;26.07;;
3647;SDS011;1840;48.892;15.312;2024-03-07T05:37:48;55.63;;;30.13;;
3647;SDS011;1840;48.892;15.312;2024-03-07T05:40:18;51.93;;;26.13;;
3647;SDS011;1840;48.892;15.312;2024-03-07T05:42:47;50.90;;;28.50;;
3647;SDS011;1840;48.892;15.312;2024-03-07T05:45:16;48.30;;;25.37;;
3647;SDS011;1840;48.892;15.312;2024-03-07T05:47:44;53.53;;;27.20;;
3647;SDS011;1840;48.892;15.312;2024-03-07T05:50:14;54.17;;;30.40;;
3647;SDS011;1840;48.892;15.312;2024-03-07T05:52:43;47.97;;;27.47;;
3647;SDS011;1840;48.892;15.312;2024-03-07T05:55:11;52.77;;;27.70;;
3647;SDS011;1840;48.892;15.312;2024-03-07T05:57:42;46.87;;;26.50;;
3647;SDS011;1840;48.892;15.312;2024-03-07T06:00:13;43.87;;;25.63;;
3647;SDS011;1840;48.892;15.312;2024-03-07T06:02:54;46.07;;;25.80;;
3647;SDS011;1840;48.892;15.312;2024-03-07T06:05:25;46.33;;;26.40;;
3647;SDS011;1840;48.892;15.312;2024-03-07T06:07:54;51.07;;;27.00;;
3647;SDS011;1840;48.892;15.312;2024-03-07T06:10:23;48.77;;;26.13;;
3647;SDS011;1840;48.892;15.312;2024-03-07T06:12:52;46.90;;;27.17;;
3647;SDS011;1840;48.892;15.312;2024-03-07T06:15:24;45.37;;;24.20;;
3647;SDS011;1840;48.892;15.312;2024-03-07T06:17:52;48.13;;;26.73;;
3647;SDS011;1840;48.892;15.312;2024-03-07T06:20:20;47.83;;;24.90;;
3647;SDS011;1840;48.892;15.312;2024-03-07T06:22:51;47.87;;;27.07;;
3647;SDS011;1840;48.892;15.312;2024-03-07T06:25:19;61.60;;;27.57;;
3647;SDS011;1840;48.892;15.312;2024-03-07T06:28:00;45.30;;;25.67;;
3647;SDS011;1840;48.892;15.312;2024-03-07T06:30:36;43.73;;;24.20;;
3647;SDS011;1840;48.892;15.312;2024-03-07T06:33:06;46.30;;;25.80;;
3647;SDS011;1840;48.892;15.312;2024-03-07T06:35:34;44.43;;;25.57;;
3647;SDS011;1840;48.892;15.312;2024-03-07T06:38:03;47.27;;;24.17;;
3647;SDS011;1840;48.892;15.312;2024-03-07T06:40:32;44.73;;;24.00;;
3647;SDS011;1840;48.892;15.312;2024-03-07T06:43:00;45.20;;;25.10;;
3647;SDS011;1840;48.892;15.312;2024-03-07T06:45:30;48.00;;;24.80;;
3647;SDS011;1840;48.892;15.312;2024-03-07T06:48:04;45.37;;;25.60;;
3647;SDS011;1840;48.892;15.312;2024-03-07T06:50:33;47.10;;;28.03;;
3647;SDS011;1840;48.892;15.312;2024-03-07T06:53:04;48.73;;;26.50;;
3647;SDS011;1840;48.892;15.312;2024-03-07T06:55:35;49.07;;;24.60;;
3647;SDS011;1840;48.892;15.312;2024-03-07T06:58:06;45.63;;;24.27;;
3647;SDS011;1840;48.892;15.312;2024-03-07T07:00:34;43.37;;;23.37;;
3647;SDS011;1840;48.892;15.312;2024-03-07T07:03:06;47.83;;;26.37;;
3647;SDS011;1840;48.892;15.312;2024-03-07T07:05:34;54.47;;;27.00;;
3647;SDS011;1840;48.892;15.312;2024-03-07T07:08:03;55.70;;;28.93;;
3647;SDS011;1840;48.892;15.312;2024-03-07T07:10:33;40.33;;;23.07;;
3647;SDS011;1840;48.892;15.312;2024-03-07T07:13:02;45.30;;;25.07;;
3647;SDS011;1840;48.892;15.312;2024-03-07T07:15:31;47.30;;;24.73;;
3647;SDS011;1840;48.892;15.312;2024-03-07T07:17:58;45.10;;;26.57;;
3647;SDS011;1840;48.892;15.312;2024-03-07T07:20:30;54.13;;;25.73;;
3647;SDS011;1840;48.892;15.312;2024-03-07T07:23:00;41.47;;;24.00;;
3647;SDS011;1840;48.892;15.312;2024-03-07T07:25:30;42.20;;;24.03;;
3647;SDS011;1840;48.892;15.312;2024-03-07T07:27:59;44.63;;;25.37;;
3647;SDS011;1840;48.892;15.312;2024-03-07T07:30:30;45.90;;;24.37;;
3647;SDS011;1840;48.892;15.312;2024-03-07T07:32:59;42.30;;;24.30;;
3647;SDS011;1840;48.892;15.312;2024-03-07T07:35:28;38.17;;;22.37;;
3647;SDS011;1840;48.892;15.312;2024-03-07T07:37:57;39.00;;;23.60;;
3647;SDS011;1840;48.892;15.312;2024-03-07T07:40:26;38.10;;;22.00;;
3647;SDS011;1840;48.892;15.312;2024-03-07T07:42:54;42.90;;;23.60;;
3647;SDS011;1840;48.892;15.312;2024-03-07T07:45:23;41.67;;;24.80;;
3647;SDS011;1840;48.892;15.312;2024-03-07T07:47:51;42.07;;;23.93;;
3647;SDS011;1840;48.892;15.312;2024-03-07T07:50:21;36.87;;;20.70;;
3647;SDS011;1840;48.892;15.312;2024-03-07T07:52:52;36.03;;;21.30;;
3647;SDS011;1840;48.892;15.312;2024-03-07T07:55:22;39.07;;;20.57;;
3647;SDS011;1840;48.892;15.312;2024-03-07T07:57:52;40.67;;;20.80;;
3647;SDS011;1840;48.892;15.312;2024-03-07T08:00:21;34.00;;;20.90;;
3647;SDS011;1840;48.892;15.312;2024-03-07T08:02:51;33.60;;;19.10;;
3647;SDS011;1840;48.892;15.312;2024-03-07T08:05:21;34.07;;;18.87;;
3647;SDS011;1840;48.892;15.312;2024-03-07T08:07:52;36.20;;;19.53;;
3647;SDS011;1840;48.892;15.312;2024-03-07T08:10:21;38.13;;;19.40;;
3647;SDS011;1840;48.892;15.312;2024-03-07T08:12:52;33.83;;;19.80;;
3647;SDS011;1840;48.892;15.312;2024-03-07T08:15:20;39.17;;;19.70;;
3647;SDS011;1840;48.892;15.312;2024-03-07T08:17:49;30.40;;;16.90;;
3647;SDS011;1840;48.892;15.312;2024-03-07T08:20:19;33.87;;;17.80;;
3647;SDS011;1840;48.892;15.312;2024-03-07T08:22:49;32.73;;;18.10;;
3647;SDS011;1840;48.892;15.312;2024-03-07T08:25:21;30.70;;;18.57;;
3647;SDS011;1840;48.892;15.312;2024-03-07T08:27:51;28.83;;;16.87;;
3647;SDS011;1840;48.892;15.312;2024-03-07T08:30:20;28.77;;;15.80;;
3647;SDS011;1840;48.892;15.312;2024-03-07T08:32:49;27.40;;;15.93;;
3647;SDS011;1840;48.892;15.312;2024-03-07T08:35:19;37.37;;;17.47;;
3647;SDS011;1840;48.892;15.312;2024-03-07T08:37:48;34.27;;;17.23;;
3647;SDS011;1840;48.892;15.312;2024-03-07T08:40:21;32.53;;;17.60;;
3647;SDS011;1840;48.892;15.312;2024-03-07T08:42:58;28.87;;;16.60;;
3647;SDS011;1840;48.892;15.312;2024-03-07T08:45:27;27.60;;;15.30;;
3647;SDS011;1840;48.892;15.312;2024-03-07T08:47:59;25.53;;;13.77;;
3647;SDS011;1840;48.892;15.312;2024-03-07T08:50:28;26.70;;;15.10;;
3647;SDS011;1840;48.892;15.312;2024-03-07T08:52:56;26.70;;;14.93;;
3647;SDS011;1840;48.892;15.312;2024-03-07T08:55:25;28.17;;;14.87;;
3647;SDS011;1840;48.892;15.312;2024-03-07T08:57:54;25.27;;;12.60;;
3647;SDS011;1840;48.892;15.312;2024-03-07T09:00:22;24.70;;;14.50;;
3647;SDS011;1840;48.892;15.312;2024-03-07T09:02:53;26.47;;;13.53;;
3647;SDS011;1840;48.892;15.312;2024-03-07T09:05:26;23.13;;;12.33;;
3647;SDS011;1840;48.892;15.312;2024-03-07T09:07:55;21.13;;;11.90;;
3647;SDS011;1840;48.892;15.312;2024-03-07T09:10:25;19.47;;;10.50;;
3647;SDS011;1840;48.892;15.312;2024-03-07T09:12:56;27.50;;;11.83;;
3647;SDS011;1840;48.892;15.312;2024-03-07T09:15:25;19.67;;;11.00;;
3647;SDS011;1840;48.892;15.312;2024-03-07T09:17:54;26.00;;;12.40;;
3647;SDS011;1840;48.892;15.312;2024-03-07T09:20:24;27.13;;;11.00;;
3647;SDS011;1840;48.892;15.312;2024-03-07T09:22:53;22.13;;;12.50;;
3647;SDS011;1840;48.892;15.312;2024-03-07T09:25:22;19.43;;;11.70;;
3647;SDS011;1840;48.892;15.312;2024-03-07T09:27:53;21.93;;;11.13;;
3647;SDS011;1840;48.892;15.312;2024-03-07T09:30:22;23.77;;;10.60;;
3647;SDS011;1840;48.892;15.312;2024-03-07T09:32:55;25.00;;;14.33;;
3647;SDS011;1840;48.892;15.312;2024-03-07T09:35:23;16.63;;;10.80;;
3647;SDS011;1840;48.892;15.312;2024-03-07T09:37:51;17.77;;;10.90;;
3647;SDS011;1840;48.892;15.312;2024-03-07T09:40:21;20.43;;;10.77;;
3647;SDS011;1840;48.892;15.312;2024-03-07T09:42:51;23.53;;;11.50;;
3647;SDS011;1840;48.892;15.312;2024-03-07T09:45:23;16.83;;;9.20;;
3647;SDS011;1840;48.892;15.312;2024-03-07T09:47:57;19.70;;;10.97;;
3647;SDS011;1840;48.892;15.312;2024-03-07T09:50:26;19.53;;;8.90;;
3647;SDS011;1840;48.892;15.312;2024-03-07T09:52:58;165.10;;;15.67;;
3647;SDS011;1840;48.892;15.312;2024-03-07T09:55:27;15.90;;;7.97;;
3647;SDS011;1840;48.892;15.312;2024-03-07T09:57:59;12.43;;;7.37;;
3647;SDS011;1840;48.892;15.312;2024-03-07T10:00:30;17.43;;;8.43;;
3647;SDS011;1840;48.892;15.312;2024-03-07T10:03:01;12.07;;;6.10;;
3647;SDS011;1840;48.892;15.312;2024-03-07T10:05:33;14.47;;;8.30;;
3647;SDS011;1840;48.892;15.312;2024-03-07T10:08:06;48.07;;;9.87;;
3647;SDS011;1840;48.892;15.312;2024-03-07T10:10:34;14.33;;;7.20;;
3647;SDS011;1840;48.892;15.312;2024-03-07T10:13:05;16.80;;;8.03;;
3647;SDS011;1840;48.892;15.312;2024-03-07T10:15:35;19.13;;;8.40;;
3647;SDS011;1840;48.892;15.312;2024-03-07T10:18:06;13.90;;;7.80;;
3647;SDS011;1840;48.892;15.312;2024-03-07T10:20:36;16.57;;;8.37;;
3647;SDS011;1840;48.892;15.312;2024-03-07T10:23:06;14.13;;;8.40;;
3647;SDS011;1840;48.892;15.312;2024-03-07T10:25:34;15.97;;;9.07;;
3647;SDS011;1840;48.892;15.312;2024-03-07T10:28:05;19.37;;;9.30;;
3647;SDS011;1840;48.892;15.312;2024-03-07T10:30:41;19.57;;;10.20;;
3647;SDS011;1840;48.892;15.312;2024-03-07T10:33:10;19.43;;;10.63;;
3647;SDS011;1840;48.892;15.312;2024-03-07T10:35:40;15.80;;;9.57;;
3647;SDS011;1840;48.892;15.312;2024-03-07T10:38:09;13.93;;;9.27;;
3647;SDS011;1840;48.892;15.312;2024-03-07T10:40:40;14.80;;;8.40;;
3647;SDS011;1840;48.892;15.312;2024-03-07T10:43:11;20.43;;;8.67;;
3647;SDS011;1840;48.892;15.312;2024-03-07T10:45:43;15.80;;;8.00;;
3647;SDS011;1840;48.892;15.312;2024-03-07T10:48:16;15.27;;;9.00;;
3647;SDS011;1840;48.892;15.312;2024-03-07T10:50:52;12.90;;;8.27;;
3647;SDS011;1840;48.892;15.312;2024-03-07T10:53:31;15.33;;;8.30;;
3647;SDS011;1840;48.892;15.312;2024-03-07T10:56:11;11.47;;;7.57;;
3647;SDS011;1840;48.892;15.312;2024-03-07T10:58:56;14.80;;;8.93;;
3647;SDS011;1840;48.892;15.312;2024-03-07T11:01:33;16.00;;;8.80;;
3647;SDS011;1840;48.892;15.312;2024-03-07T11:04:06;21.83;;;8.93;;
3647;SDS011;1840;48.892;15.312;2024-03-07T11:06:35;12.67;;;7.37;;
3647;SDS011;1840;48.892;15.312;2024-03-07T11:09:04;13.43;;;8.30;;
3647;SDS011;1840;48.892;15.312;2024-03-07T11:11:37;26.83;;;9.13;;
3647;SDS011;1840;48.892;15.312;2024-03-07T11:14:10;21.27;;;9.13;;
3647;SDS011;1840;48.892;15.312;2024-03-07T11:16:41;13.83;;;8.07;;
3647;SDS011;1840;48.892;15.312;2024-03-07T11:19:20;18.37;;;9.73;;
3647;SDS011;1840;48.892;15.312;2024-03-07T11:21:54;16.03;;;9.90;;
3647;SDS011;1840;48.892;15.312;2024-03-07T11:24:23;16.50;;;10.23;;
3647;SDS011;1840;48.892;15.312;2024-03-07T11:26:52;14.80;;;9.40;;
3647;SDS011;1840;48.892;15.312;2024-03-07T11:29:46;20.63;;;10.97;;
3647;SDS011;1840;48.892;15.312;2024-03-07T11:32:20;16.40;;;9.77;;
3647;SDS011;1840;48.892;15.312;2024-03-07T11:34:53;23.47;;;11.07;;
3647;SDS011;1840;48.892;15.312;2024-03-07T11:37:36;56.60;;;28.23;;
3647;SDS011;1840;48.892;15.312;2024-03-07T11:40:10;33.13;;;13.60;;
3647;SDS011;1840;48.892;15.312;2024-03-07T11:42:46;21.07;;;11.80;;
3647;SDS011;1840;48.892;15.312;2024-03-07T11:45:17;26.50;;;11.40;;
3647;SDS011;1840;48.892;15.312;2024-03-07T11:47:52;17.93;;;10.70;;
3647;SDS011;1840;48.892;15.312;2024-03-07T11:50:27;19.20;;;9.90;;
3647;SDS011;1840;48.892;15.312;2024-03-07T11:52:55;17.90;;;10.40;;
3647;SDS011;1840;48.892;15.312;2024-03-07T11:55:25;22.40;;;10.83;;
3647;SDS011;1840;48.892;15.312;2024-03-07T11:57:55;20.17;;;10.20;;
3647;SDS011;1840;48.892;15.312;2024-03-07T12:00:24;21.10;;;11.33;;
3647;SDS011;1840;48.892;15.312;2024-03-07T12:03:00;17.47;;;10.33;;
3647;SDS011;1840;48.892;15.312;2024-03-07T12:05:32;25.63;;;13.90;;
3647;SDS011;1840;48.892;15.312;2024-03-07T12:08:00;19.40;;;11.17;;
3647;SDS011;1840;48.892;15.312;2024-03-07T12:10:32;22.27;;;12.23;;
3647;SDS011;1840;48.892;15.312;2024-03-07T12:13:00;18.77;;;10.00;;
3647;SDS011;1840;48.892;15.312;2024-03-07T12:15:32;18.27;;;10.07;;
3647;SDS011;1840;48.892;15.312;2024-03-07T12:18:02;16.93;;;9.10;;
3647;SDS011;1840;48.892;15.312;2024-03-07T12:20:36;24.63;;;11.77;;
3647;SDS011;1840;48.892;15.312;2024-03-07T12:23:07;15.93;;;9.03;;
3647;SDS011;1840;48.892;15.312;2024-03-07T12:25:36;14.93;;;8.43;;
3647;SDS011;1840;48.892;15.312;2024-03-07T12:28:05;14.13;;;7.40;;
3647;SDS011;1840;48.892;15.312;2024-03-07T12:30:48;16.40;;;8.90;;
3647;SDS011;1840;48.892;15.312;2024-03-07T12:33:18;15.00;;;8.77;;
3647;SDS011;1840;48.892;15.312;2024-03-07T12:35:47;14.53;;;8.33;;
3647;SDS011;1840;48.892;15.312;2024-03-07T12:38:18;23.03;;;9.67;;
3647;SDS011;1840;48.892;15.312;2024-03-07T12:41:01;16.77;;;9.10;;
3647;SDS011;1840;48.892;15.312;2024-03-07T12:43:32;22.07;;;10.57;;
3647;SDS011;1840;48.892;15.312;2024-03-07T12:46:04;16.10;;;9.53;;
3647;SDS011;1840;48.892;15.312;2024-03-07T12:48:35;17.90;;;10.07;;
3647;SDS011;1840;48.892;15.312;2024-03-07T12:51:05;121.73;;;17.60;;
3647;SDS011;1840;48.892;15.312;2024-03-07T12:53:33;19.30;;;9.47;;
3647;SDS011;1840;48.892;15.312;2024-03-07T12:56:03;24.77;;;11.17;;
3647;SDS011;1840;48.892;15.312;2024-03-07T12:58:32;18.17;;;9.13;;
3647;SDS011;1840;48.892;15.312;2024-03-07T13:01:01;22.50;;;10.10;;
3647;SDS011;1840;48.892;15.312;2024-03-07T13:03:30;15.97;;;9.87;;
3647;SDS011;1840;48.892;15.312;2024-03-07T13:05:58;21.80;;;11.07;;
3647;SDS011;1840;48.892;15.312;2024-03-07T13:08:29;20.03;;;10.47;;
3647;SDS011;1840;48.892;15.312;2024-03-07T13:10:57;25.60;;;10.07;;
3647;SDS011;1840;48.892;15.312;2024-03-07T13:13:29;33.53;;;11.97;;
3647;SDS011;1840;48.892;15.312;2024-03-07T13:15:58;18.83;;;10.77;;
3647;SDS011;1840;48.892;15.312;2024-03-07T13:18:28;226.10;;;25.13;;
3647;SDS011;1840;48.892;15.312;2024-03-07T13:21:00;29.47;;;11.60;;
3647;SDS011;1840;48.892;15.312;2024-03-07T13:23:31;36.73;;;9.83;;
3647;SDS011;1840;48.892;15.312;2024-03-07T13:25:59;19.60;;;10.40;;
3647;SDS011;1840;48.892;15.312;2024-03-07T13:28:34;21.80;;;11.00;;
3647;SDS011;1840;48.892;15.312;2024-03-07T13:31:03;17.77;;;10.20;;
3647;SDS011;1840;48.892;15.312;2024-03-07T13:33:32;22.57;;;11.27;;
3647;SDS011;1840;48.892;15.312;2024-03-07T13:36:03;22.10;;;11.20;;
3647;SDS011;1840;48.892;15.312;2024-03-07T13:38:33;23.60;;;11.20;;
3647;SDS011;1840;48.892;15.312;2024-03-07T13:41:01;20.80;;;11.20;;
3647;SDS011;1840;48.892;15.312;2024-03-07T13:43:32;17.83;;;11.20;;
3647;SDS011;1840;48.892;15.312;2024-03-07T13:46:00;46.63;;;13.57;;
3647;SDS011;1840;48.892;15.312;2024-03-07T13:48:34;18.70;;;10.37;;
3647;SDS011;1840;48.892;15.312;2024-03-07T13:51:03;19.17;;;10.40;;
3647;SDS011;1840;48.892;15.312;2024-03-07T13:53:34;23.50;;;12.10;;
3647;SDS011;1840;48.892;15.312;2024-03-07T13:56:23;54.17;;;12.83;;
3647;SDS011;1840;48.892;15.312;2024-03-07T13:59:10;33.27;;;13.60;;
3647;SDS011;1840;48.892;15.312;2024-03-07T14:01:55;24.07;;;12.50;;
3647;SDS011;1840;48.892;15.312;2024-03-07T14:07:44;23.93;;;11.40;;
3647;SDS011;1840;48.892;15.312;2024-03-07T14:10:33;22.00;;;11.77;;
3647;SDS011;1840;48.892;15.312;2024-03-07T14:13:33;22.60;;;12.37;;
3647;SDS011;1840;48.892;15.312;2024-03-07T14:22:23;19.63;;;12.50;;
3647;SDS011;1840;48.892;15.312;2024-03-07T14:28:05;24.70;;;14.40;;
3647;SDS011;1840;48.892;15.312;2024-03-07T14:30:49;22.63;;;14.47;;
3647;SDS011;1840;48.892;15.312;2024-03-07T14:33:23;24.90;;;15.23;;
3647;SDS011;1840;48.892;15.312;2024-03-07T14:36:02;23.53;;;14.43;;
3647;SDS011;1840;48.892;15.312;2024-03-07T14:38:47;25.97;;;15.07;;
3647;SDS011;1840;48.892;15.312;2024-03-07T14:41:20;28.03;;;14.90;;
3647;SDS011;1840;48.892;15.312;2024-03-07T14:43:52;25.70;;;15.27;;
3647;SDS011;1840;48.892;15.312;2024-03-07T14:46:20;26.10;;;15.80;;
3647;SDS011;1840;48.892;15.312;2024-03-07T14:48:48;25.63;;;16.37;;
3647;SDS011;1840;48.892;15.312;2024-03-07T14:51:17;26.83;;;15.20;;
3647;SDS011;1840;48.892;15.312;2024-03-07T14:53:45;31.97;;;17.37;;
3647;SDS011;1840;48.892;15.312;2024-03-07T14:56:13;28.90;;;16.50;;
3647;SDS011;1840;48.892;15.312;2024-03-07T14:58:42;32.40;;;17.00;;
3647;SDS011;1840;48.892;15.312;2024-03-07T15:01:11;27.13;;;16.20;;
3647;SDS011;1840;48.892;15.312;2024-03-07T15:03:40;27.47;;;16.60;;
3647;SDS011;1840;48.892;15.312;2024-03-07T15:06:11;32.53;;;17.30;;
3647;SDS011;1840;48.892;15.312;2024-03-07T15:08:41;23.60;;;15.50;;